Time;durP1;ratioP1;P1;durP2;ratioP2;P2;SDS_P1;SDS_P2;PMS_P1;PMS_P2;Temp;Humidity;BMP_temperature;BMP_pressure;BME280_temperature;BME280_humidity;BME280_pressure;Samples;Min_cycle;Max_cycle;Signal;HPM_P1;HPM_P2
2022/09/04 00:01:10;;;;;;;6.07;5.68;;;;;;;16.48;100.00;101036.06;6015559;23;20358;-76
2022/09/04 00:03:50;;;;;;;6.00;5.60;;;;;;;14.63;100.00;100728.84;6089925;23;20026;-75
2022/09/04 00:06:22;;;;;;;6.07;5.68;;;;;;;16.48;100.00;101030.75;6059824;23;20015;-76
2022/09/04 00:09:48;;;;;;;6.10;5.70;;;;;;;16.45;100.00;101041.56;6093821;23;20050;-74
2022/09/04 00:12:29;;;;;;;6.55;6.15;;;;;;;16.11;100.00;100981.25;5995445;23;20030;-75
2022/09/04 00:15:33;;;;;;;7.55;7.03;;;;;;;16.37;100.00;101041.28;6053475;23;20429;-75
2022/09/04 00:18:30;;;;;;;6.78;6.38;;;;;;;16.28;100.00;101040.97;6052783;23;20111;-74
2022/09/04 00:21:21;;;;;;;7.05;6.55;;;;;;;16.25;100.00;101046.47;6058317;23;20007;-75
2022/09/04 00:24:10;;;;;;;6.10;5.70;;;;;;;16.22;100.00;101049.34;6049508;23;20017;-77
2022/09/04 00:27:14;;;;;;;6.13;5.72;;;;;;;16.21;100.00;101070.63;6066672;23;20096;-75
2022/09/04 00:30:03;;;;;;;5.82;5.32;;;;;;;16.16;100.00;101052.44;6026245;23;20010;-76
2022/09/04 00:32:43;;;;;;;5.47;5.18;;;;;;;15.23;100.00;100906.25;6096925;23;20412;-76
2022/09/04 00:35:17;;;;;;;7.70;7.15;;;;;;;16.08;100.00;101054.78;6065175;23;20034;-75
2022/09/04 00:38:15;;;;;;;6.20;5.80;;;;;;;16.03;100.00;101051.59;6097779;23;20013;-76
2022/09/04 00:41:06;;;;;;;5.88;5.47;;;;;;;16.04;100.00;101048.84;6068149;23;20014;-75
2022/09/04 00:44:17;;;;;;;6.05;5.68;;;;;;;16.05;100.00;101053.16;6084447;23;20092;-76
2022/09/04 00:47:04;;;;;;;5.90;5.50;;;;;;;15.98;100.00;101051.91;6063602;23;20097;-77
2022/09/04 00:50:11;;;;;;;5.93;5.57;;;;;;;15.93;100.00;101068.09;6080723;23;20034;-76
2022/09/04 00:52:48;;;;;;;5.82;5.53;;;;;;;15.94;100.00;101061.84;6065544;23;20343;-76
2022/09/04 00:55:44;;;;;;;5.97;5.68;;;;;;;15.93;100.00;101061.97;6097833;23;20018;-76
2022/09/04 00:58:47;;;;;;;6.40;6.00;;;;;;;15.90;100.00;101064.84;6067824;23;20052;-76
2022/09/04 01:01:26;;;;;;;6.00;5.60;;;;;;;15.53;100.00;101009.09;6093571;23;20022;-76
2022/09/04 01:04:23;;;;;;;7.10;6.60;;;;;;;15.84;100.00;101068.75;6079197;23;20018;-75
2022/09/04 01:07:21;;;;;;;6.10;5.70;;;;;;;15.83;100.00;101072.31;6086571;23;20054;-76
2022/09/04 01:10:19;;;;;;;5.72;5.38;;;;;;;14.65;100.00;100876.66;6013835;23;20045;-75
2022/09/04 01:13:12;;;;;;;6.30;5.90;;;;;;;15.81;100.00;101068.94;6104718;23;20220;-76
2022/09/04 01:16:18;;;;;;;5.75;5.40;;;;;;;14.13;100.00;100788.50;6058133;23;20017;-76
2022/09/04 01:19:28;;;;;;;6.60;6.13;;;;;;;15.83;100.00;101072.31;6088669;23;20037;-74
2022/09/04 01:22:50;;;;;;;6.97;6.57;;;;;;;14.80;100.00;100898.59;6074131;23;20014;-75
2022/09/04 01:25:51;;;;;;;5.82;5.53;;;;;;;15.80;100.00;101077.84;6086196;23;20014;-76
2022/09/04 01:29:06;;;;;;;6.03;5.72;;;;;;;15.75;100.00;101072.88;6058419;23;20050;-76
2022/09/04 01:31:51;;;;;;;5.70;5.30;;;;;;;15.74;100.00;101078.25;5994253;23;20035;-76
2022/09/04 01:34:49;;;;;;;5.70;5.40;;;;;;;15.71;100.00;101083.72;5996737;23;20263;-76
2022/09/04 01:38:19;;;;;;;6.38;5.88;;;;;;;15.70;100.00;101079.38;5971976;23;20012;-77
2022/09/04 01:40:49;;;;;;;6.38;5.88;;;;;;;14.82;100.00;100955.66;5965026;24;20082;-76
2022/09/04 01:43:31;;;;;;;6.13;5.72;;;;;;;15.35;100.00;101050.84;6050590;23;20114;-77
2022/09/04 01:46:21;;;;;;;6.90;6.50;;;;;;;15.65;100.00;101079.69;6061653;23;20021;-76
2022/09/04 01:49:21;;;;;;;6.15;5.75;;;;;;;15.66;100.00;101080.56;6083796;23;20069;-76
2022/09/04 01:51:57;;;;;;;5.60;5.30;;;;;;;15.63;100.00;101078.94;6085894;23;20530;-77
2022/09/04 01:54:41;;;;;;;5.38;5.07;;;;;;;15.61;100.00;101086.13;6083943;23;20018;-76
2022/09/04 01:57:17;;;;;;;6.78;6.35;;;;;;;15.60;100.00;101091.56;6067812;23;20021;-76
2022/09/04 02:00:01;;;;;;;5.95;5.60;;;;;;;15.56;100.00;101085.59;6050922;23;20498;-76
2022/09/04 02:02:43;;;;;;;5.40;5.10;;;;;;;15.52;100.00;101095.53;6085021;23;20042;-75
2022/09/04 02:05:29;;;;;;;5.95;5.65;;;;;;;15.48;100.00;101095.84;6089234;23;20174;-75
2022/09/04 02:08:34;;;;;;;6.25;5.72;;;;;;;15.11;100.00;101043.59;6055003;23;20218;-76
2022/09/04 02:11:11;;;;;;;5.93;5.63;;;;;;;15.39;100.00;101096.44;6042021;23;20041;-76
2022/09/04 02:14:26;;;;;;;6.03;5.33;;;;;;;15.36;100.00;101094.88;6049610;23;20028;-77
2022/09/04 02:17:38;;;;;;;7.20;6.70;;;;;;;15.34;100.00;101097.59;6057036;23;20033;-75
2022/09/04 02:20:28;;;;;;;7.55;7.00;;;;;;;14.92;100.00;101030.72;6020848;23;20006;-75
2022/09/04 02:23:36;;;;;;;6.28;5.88;;;;;;;15.32;100.00;101098.66;6085455;23;20320;-75
2022/09/04 02:26:29;;;;;;;7.15;6.75;;;;;;;15.28;100.00;101089.25;6049555;23;20498;-75
2022/09/04 02:29:11;;;;;;;5.93;5.63;;;;;;;13.34;100.00;100777.69;6041916;23;20018;-75
2022/09/04 02:32:11;;;;;;;6.82;6.28;;;;;;;15.29;100.00;101098.84;6107294;23;20357;-75
2022/09/04 02:34:56;;;;;;;6.47;5.97;;;;;;;13.22;100.00;100761.78;6074466;23;20027;-75
2022/09/04 02:37:48;;;;;;;6.47;6.07;;;;;;;15.26;100.00;101099.06;6102982;23;20083;-76
2022/09/04 02:40:53;;;;;;;6.82;6.32;;;;;;;15.18;100.00;101101.38;6086223;23;20017;-75
2022/09/04 02:43:49;;;;;;;6.18;5.78;;;;;;;15.11;100.00;101095.59;6085995;23;20010;-75
2022/09/04 02:46:42;;;;;;;6.50;6.10;;;;;;;15.06;100.00;101093.28;6076631;23;20030;-75
2022/09/04 02:49:28;;;;;;;7.88;7.38;;;;;;;15.02;100.00;101101.50;6115482;23;20024;-75
2022/09/04 02:52:32;;;;;;;6.95;6.47;;;;;;;14.96;100.00;101098.31;6078583;23;20118;-74
2022/09/04 02:55:36;;;;;;;6.75;6.28;;;;;;;14.92;100.00;101101.25;6095449;23;20025;-77
2022/09/04 02:58:38;;;;;;;6.93;6.50;;;;;;;14.87;100.00;101098.03;6071997;23;20033;-77
2022/09/04 03:01:23;;;;;;;7.60;7.20;;;;;;;14.85;100.00;101102.56;6028411;23;20022;-75
2022/09/04 03:04:05;;;;;;;5.80;5.47;;;;;;;14.82;100.00;101102.78;6104783;23;20037;-75
2022/09/04 03:07:22;;;;;;;5.93;5.53;;;;;;;14.78;100.00;101103.94;6089475;23;20058;-75
2022/09/04 03:10:27;;;;;;;6.72;6.22;;;;;;;14.72;100.00;101095.44;6101801;23;20189;-76
2022/09/04 03:13:07;;;;;;;6.40;6.00;;;;;;;14.40;100.00;101064.88;6081347;23;20014;-76
2022/09/04 03:15:43;;;;;;;6.28;5.88;;;;;;;14.33;100.00;101052.06;6086243;23;20344;-75
2022/09/04 03:18:21;;;;;;;7.53;7.10;;;;;;;14.33;100.00;101038.88;6079268;23;20025;-75
2022/09/04 03:21:00;;;;;;;6.35;5.95;;;;;;;14.69;100.00;101100.06;6112211;23;20427;-75
2022/09/04 03:23:50;;;;;;;6.20;5.80;;;;;;;14.69;100.00;101100.06;6074529;23;21423;-75
2022/09/04 03:26:26;;;;;;;5.68;5.38;;;;;;;14.69;100.00;101103.56;6102646;23;20276;-76
2022/09/04 03:29:02;;;;;;;6.35;5.85;;;;;;;14.70;100.00;101107.03;6073169;23;20029;-77
2022/09/04 03:31:58;;;;;;;7.03;6.53;;;;;;;14.69;100.00;101102.69;6110068;23;20057;-75
2022/09/04 03:35:16;;;;;;;5.90;5.50;;;;;;;14.68;100.00;101107.13;6095013;23;20089;-74
2022/09/04 03:38:03;;;;;;;6.22;5.78;;;;;;;14.69;100.00;101111.50;6042993;23;20005;-76
2022/09/04 03:40:36;;;;;;;6.77;6.27;;;;;;;14.36;100.00;101058.94;6091463;23;20025;-75
2022/09/04 03:43:33;;;;;;;7.22;6.72;;;;;;;14.67;100.00;101108.09;6107050;23;20070;-77
2022/09/04 03:46:34;;;;;;;8.95;8.45;;;;;;;14.68;100.00;101109.78;6073025;23;20026;-77
2022/09/04 03:49:33;;;;;;;6.03;5.72;;;;;;;14.67;100.00;101110.75;6134139;23;20025;-77
2022/09/04 03:52:10;;;;;;;7.55;7.00;;;;;;;14.64;100.00;101112.72;6094334;23;20057;-76
2022/09/04 03:54:49;;;;;;;6.32;5.93;;;;;;;14.64;100.00;101108.28;6139619;23;20477;-76
2022/09/04 03:57:37;;;;;;;6.28;5.88;;;;;;;14.70;100.00;101110.53;6081917;23;20115;-76
2022/09/04 04:00:19;;;;;;;6.18;5.75;;;;;;;13.67;100.00;100947.06;6103105;23;20070;-75
2022/09/04 04:03:04;;;;;;;6.82;6.32;;;;;;;14.64;100.00;101108.28;6093315;23;20013;-76
2022/09/04 04:05:43;;;;;;;6.32;5.97;;;;;;;13.62;100.00;100943.88;6113619;23;20013;-75
2022/09/04 04:08:41;;;;;;;7.75;7.25;;;;;;;14.15;100.00;101055.81;6090482;23;20502;-75
2022/09/04 04:11:31;;;;;;;8.13;7.53;;;;;;;14.57;100.00;101112.22;6112107;23;20104;-76
2022/09/04 04:14:37;;;;;;;7.63;7.18;;;;;;;14.55;100.00;101120.25;6085868;23;20022;-75
2022/09/04 04:17:35;;;;;;;6.03;5.65;;;;;;;14.54;100.00;101118.53;6123824;23;20021;-75
2022/09/04 04:20:23;;;;;;;7.35;6.85;;;;;;;14.23;100.00;101074.72;6073689;23;20136;-76
2022/09/04 04:23:28;;;;;;;6.88;6.28;;;;;;;14.52;100.00;101120.41;6134707;23;20017;-76
2022/09/04 04:26:13;;;;;;;6.25;5.85;;;;;;;13.76;100.00;100989.56;6085529;23;20010;-75
2022/09/04 04:29:01;;;;;;;6.50;6.00;;;;;;;14.60;100.00;101116.50;6114996;23;20017;-75
2022/09/04 04:32:09;;;;;;;6.30;5.90;;;;;;;14.58;100.00;101113.94;6089281;23;20014;-75
2022/09/04 04:35:11;;;;;;;6.50;6.10;;;;;;;14.61;100.00;101119.00;6085615;23;20233;-75
2022/09/04 04:37:53;;;;;;;6.35;5.95;;;;;;;14.13;100.00;101041.88;6083334;23;20367;-75
2022/09/04 04:40:59;;;;;;;6.68;6.28;;;;;;;14.63;100.00;101122.41;6116598;23;20577;-76
2022/09/04 04:43:43;;;;;;;6.70;6.30;;;;;;;14.62;100.00;101126.00;6070003;23;20049;-75
2022/09/04 04:46:32;;;;;;;7.47;6.97;;;;;;;14.63;100.00;101127.69;6106834;23;20181;-75
2022/09/04 04:49:37;;;;;;;7.50;7.03;;;;;;;14.64;100.00;101129.41;6083840;23;20042;-75
2022/09/04 04:52:43;;;;;;;7.25;6.75;;;;;;;14.63;100.00;101132.13;6120326;23;20025;-75
2022/09/04 04:55:14;;;;;;;8.02;7.53;;;;;;;13.73;100.00;100988.91;6016241;23;20027;-76
2022/09/04 04:57:52;;;;;;;6.72;6.22;;;;;;;14.62;100.00;101139.22;6094099;23;20029;-75
2022/09/04 05:00:26;;;;;;;6.88;6.38;;;;;;;14.59;100.00;101157.88;6078153;23;20009;-77
2022/09/04 05:03:14;;;;;;;6.50;6.05;;;;;;;14.61;100.00;101150.72;6112823;23;20029;-76
2022/09/04 05:05:58;;;;;;;6.90;6.40;;;;;;;14.64;100.00;101149.69;6083114;23;20087;-77
2022/09/04 05:09:02;;;;;;;6.38;5.97;;;;;;;14.67;100.00;101149.50;6105710;23;20176;-76
2022/09/04 05:11:38;;;;;;;7.53;6.82;;;;;;;14.36;100.00;101103.81;6077314;23;21572;-75
2022/09/04 05:14:26;;;;;;;8.38;7.68;;;;;;;14.61;100.00;101132.22;6119973;23;20026;-76
2022/09/04 05:17:13;;;;;;;6.88;6.22;;;;;;;14.83;100.00;101165.25;6085294;23;20032;-76
2022/09/04 05:19:48;;;;;;;6.07;5.70;;;;;;;14.89;100.00;101162.22;6108394;23;20037;-76
2022/09/04 05:22:34;;;;;;;7.72;7.22;;;;;;;14.93;100.00;101161.94;6080949;23;20046;-76
2022/09/04 05:25:06;;;;;;;7.40;6.90;;;;;;;15.01;100.00;101169.38;6115385;23;20010;-76
2022/09/04 05:28:20;;;;;;;6.68;6.28;;;;;;;15.01;100.00;101174.66;6081746;23;20088;-76
2022/09/04 05:31:01;;;;;;;6.53;6.13;;;;;;;14.90;100.00;101150.72;6103302;23;20032;-76
2022/09/04 05:33:27;;;;;;;6.25;5.85;;;;;;;15.05;100.00;101170.88;6083333;23;20050;-77
2022/09/04 05:36:07;;;;;;;7.03;6.53;;;;;;;15.17;100.00;101185.09;6108871;23;20021;-75
2022/09/04 05:38:43;;;;;;;5.97;5.57;;;;;;;15.26;100.00;101189.81;6081230;23;20078;-76
2022/09/04 05:41:32;;;;;;;7.75;7.22;;;;;;;15.38;100.00;101187.34;6102324;23;20013;-76
2022/09/04 05:44:07;;;;;;;7.75;7.07;;;;;;;14.83;100.00;101083.31;6080887;23;20014;-76
2022/09/04 05:46:41;;;;;;;6.28;5.88;;;;;;;15.60;100.00;101192.09;6102690;23;20216;-77
2022/09/04 05:49:31;;;;;;;8.20;7.50;;;;;;;14.71;100.00;101035.63;6075633;23;20032;-76
2022/09/04 05:52:20;;;;;;;6.57;6.20;;;;;;;15.70;100.00;101203.75;6095853;23;20025;-76
2022/09/04 05:55:09;;;;;;;6.82;6.28;;;;;;;15.76;100.00;101203.38;6087181;23;20491;-76
2022/09/04 05:58:22;;;;;;;6.15;5.75;;;;;;;15.89;100.00;101203.41;6096899;23;20086;-76
2022/09/04 06:00:55;;;;;;;6.78;6.28;;;;;;;15.63;100.00;101160.94;6074113;23;20623;-75
2022/09/04 06:03:40;;;;;;;6.85;6.40;;;;;;;15.99;100.00;101236.25;6107547;23;20262;-75
2022/09/04 06:06:25;;;;;;;7.97;7.38;;;;;;;15.69;100.00;101157.91;6082078;23;20030;-75
2022/09/04 06:09:27;;;;;;;6.60;6.20;;;;;;;15.55;100.00;101123.56;6107939;23;20029;-75
2022/09/04 06:12:27;;;;;;;6.50;6.10;;;;;;;16.17;100.00;101207.69;6082161;23;20029;-75
2022/09/04 06:14:57;;;;;;;6.30;5.90;;;;;;;16.08;100.00;101169.47;6100037;23;20076;-75
2022/09/04 06:17:49;;;;;;;6.88;6.38;;;;;;;16.39;100.00;101209.72;6069607;23;20658;-73
2022/09/04 06:20:28;;;;;;;6.78;6.30;;;;;;;16.39;100.00;101212.38;6047563;23;20343;-75
2022/09/04 06:23:08;;;;;;;7.65;7.05;;;;;;;16.08;100.00;101142.16;6066371;23;20226;-75
2022/09/04 06:26:12;;;;;;;6.80;6.32;;;;;;;16.73;100.00;101210.03;6102444;23;20040;-76
2022/09/04 06:29:04;;;;;;;7.35;6.75;;;;;;;16.93;100.00;101243.16;6081030;23;20025;-76
2022/09/04 06:31:42;;;;;;;6.60;6.10;;;;;;;16.29;100.00;101092.97;6069645;23;20061;-75
2022/09/04 06:34:42;;;;;;;7.57;7.18;;;;;;;16.82;100.00;101179.41;6089041;23;20081;-75
2022/09/04 06:37:32;;;;;;;7.60;7.10;;;;;;;17.33;100.00;101225.22;6061029;23;20124;-76
2022/09/04 06:40:09;;;;;;;7.20;6.70;;;;;;;17.52;100.00;101223.91;6089865;23;20083;-76
2022/09/04 06:42:58;;;;;;;6.50;6.07;;;;;;;17.57;100.00;101229.72;6070718;23;20091;-76
2022/09/04 06:45:52;;;;;;;7.25;6.65;;;;;;;16.79;100.00;101084.19;6091737;23;20014;-76
2022/09/04 06:48:36;;;;;;;6.93;6.38;;;;;;;17.79;100.00;101233.47;6052992;23;20193;-76
2022/09/04 06:51:17;;;;;;;7.60;7.15;;;;;;;17.37;100.00;101140.97;6095448;23;20545;-77
2022/09/04 06:54:48;;;;;;;6.88;6.35;;;;;;;17.89;100.00;101205.28;6053966;23;20028;-76
2022/09/04 06:57:29;;;;;;;7.90;7.30;;;;;;;17.70;100.00;101179.22;5944152;23;20035;-76
2022/09/04 07:00:07;;;;;;;7.25;6.65;;;;;;;18.20;100.00;101243.69;5957447;23;20027;-77
2022/09/04 07:02:43;;;;;;;6.32;5.93;;;;;;;18.15;100.00;101248.47;6086854;23;20036;-77
2022/09/04 07:05:30;;;;;;;7.53;7.03;;;;;;;18.32;100.00;101245.41;6077366;23;20097;-77
2022/09/04 07:08:11;;;;;;;6.82;6.32;;;;;;;17.97;100.00;101170.19;6084888;23;20014;-76
2022/09/04 07:10:44;;;;;;;6.32;5.93;;;;;;;18.60;100.00;101248.59;6079515;23;20038;-77
2022/09/04 07:13:53;;;;;;;8.18;7.65;;;;;;;18.41;100.00;101200.47;6104881;23;20013;-77
2022/09/04 07:17:04;;;;;;;6.80;6.40;;;;;;;18.91;100.00;101256.88;6057530;23;20071;-77
2022/09/04 07:19:37;;;;;;;7.32;6.75;;;;;;;18.96;100.00;101254.66;6043798;23;20026;-77
2022/09/04 07:22:03;;;;;;;;;;;;;;;19.01;100.00;101251.66;6094526;23;20593;-76
2022/09/04 07:24:55;;;;;;;7.00;6.50;;;;;;;19.16;100.00;101238.94;6076645;23;19959;-77
2022/09/04 07:27:39;;;;;;;6.50;6.10;;;;;;;19.24;100.00;101228.53;6076896;23;20244;-77
2022/09/04 07:30:08;;;;;;;8.05;7.45;;;;;;;19.32;100.00;101226.97;6104127;23;20025;-77
2022/09/04 07:32:55;;;;;;;6.30;5.90;;;;;;;19.64;100.00;101249.25;6052730;23;20013;-77
2022/09/04 07:35:55;;;;;;;6.90;6.40;;;;;;;19.96;100.00;101264.44;6105687;23;20517;-76
2022/09/04 07:38:25;;;;;;;7.55;7.05;;;;;;;20.16;100.00;101266.28;6072705;23;20028;-76
2022/09/04 07:41:00;;;;;;;6.72;6.22;;;;;;;19.93;100.00;101207.78;6063137;23;20189;-75
2022/09/04 07:43:41;;;;;;;7.38;6.68;;;;;;;20.44;100.00;101275.47;6080579;23;20056;-76
2022/09/04 07:46:24;;;;;;;6.80;6.40;;;;;;;20.49;100.00;101267.94;6097211;23;20035;-75
2022/09/04 07:49:08;;;;;;;6.40;6.00;;;;;;;20.20;100.00;101222.41;6057362;23;20404;-74
2022/09/04 07:51:46;;;;;;;7.22;6.72;;;;;;;20.32;100.00;101225.84;6098944;23;20481;-75
2022/09/04 07:54:28;;;;;;;7.38;6.90;;;;;;;20.57;100.00;101269.94;6073520;23;20026;-76
2022/09/04 07:57:27;;;;;;;6.18;5.80;;;;;;;20.83;100.00;101272.25;6068052;23;20055;-76
2022/09/04 08:00:03;;;;;;;6.40;6.00;;;;;;;21.07;100.00;101283.44;6089679;23;20097;-76
2022/09/04 08:03:10;;;;;;;6.00;5.70;;;;;;;21.11;98.16;101268.84;6094281;23;20156;-76
2022/09/04 08:05:48;;;;;;;6.00;5.65;;;;;;;21.25;97.88;101278.31;6076973;23;20060;-76
2022/09/04 08:08:30;;;;;;;7.20;6.75;;;;;;;21.30;97.60;101253.88;6105603;23;20277;-77
2022/09/04 08:11:29;;;;;;;6.63;6.22;;;;;;;21.50;96.10;101270.81;6052470;23;20129;-76
2022/09/04 08:14:22;;;;;;;6.22;5.93;;;;;;;21.65;95.59;101276.59;6082098;23;20033;-75
2022/09/04 08:16:59;;;;;;;6.88;6.25;;;;;;;21.26;95.79;101186.53;6086936;23;20022;-73
2022/09/04 08:19:53;;;;;;;6.63;6.00;;;;;;;21.53;93.43;101209.13;6099131;23;20044;-71
2022/09/04 08:22:36;;;;;;;6.40;6.00;;;;;;;21.22;93.27;101141.59;6061146;23;20014;-70
2022/09/04 08:25:28;;;;;;;5.82;5.53;;;;;;;21.68;91.75;101180.16;6111653;23;20028;-71
2022/09/04 08:28:43;;;;;;;6.47;5.90;;;;;;;22.22;88.52;101280.28;6079015;23;20024;-72
2022/09/04 08:31:23;;;;;;;5.85;5.55;;;;;;;22.35;89.58;101287.19;6090431;23;20631;-72
2022/09/04 08:33:58;;;;;;;6.10;5.80;;;;;;;22.54;87.97;101279.16;6079981;23;20018;-74
2022/09/04 08:36:38;;;;;;;6.00;5.70;;;;;;;22.25;87.54;101198.97;6103277;23;20132;-78
2022/09/04 08:39:27;;;;;;;6.50;6.10;;;;;;;23.01;86.32;101281.84;6054815;23;20132;-75
2022/09/04 08:42:04;;;;;;;6.30;6.00;;;;;;;22.80;84.81;101278.53;6082039;23;20441;-75
2022/09/04 08:44:33;;;;;;;5.95;5.65;;;;;;;22.97;85.29;101285.78;6103326;23;20072;-75
2022/09/04 08:47:25;;;;;;;7.47;6.53;;;;;;;22.94;85.97;101286.06;6084496;23;20043;-75
2022/09/04 08:50:22;;;;;;;6.15;5.85;;;;;;;23.08;84.85;101288.31;6109686;23;20025;-74
2022/09/04 08:53:07;;;;;;;6.60;6.20;;;;;;;23.18;82.37;101290.09;6080503;23;20017;-74
2022/09/04 08:56:05;;;;;;;5.90;5.60;;;;;;;23.10;83.14;101289.00;6109216;23;20036;-74
2022/09/04 08:58:50;;;;;;;6.38;5.97;;;;;;;23.28;83.36;101290.91;6048872;23;20027;-75
2022/09/04 09:01:36;;;;;;;6.50;6.10;;;;;;;23.46;82.26;101286.44;6094312;23;20459;-75
2022/09/04 09:04:46;;;;;;;5.90;5.60;;;;;;;23.72;81.27;101303.63;6076889;23;20411;-75
2022/09/04 09:08:03;;;;;;;6.25;5.85;;;;;;;23.61;79.90;101261.78;6085989;23;20029;-74
2022/09/04 09:11:02;;;;;;;7.07;6.68;;;;;;;23.07;79.02;101152.78;6068971;23;20267;-75
2022/09/04 09:14:00;;;;;;;6.32;6.00;;;;;;;23.83;79.07;101298.06;6095631;23;20017;-76
2022/09/04 09:16:41;;;;;;;6.30;5.90;;;;;;;23.62;78.49;101242.06;6083507;23;20052;-75
2022/09/04 09:19:46;;;;;;;6.30;5.90;;;;;;;23.39;79.33;101193.41;6098491;23;20453;-74
2022/09/04 09:22:48;;;;;;;7.05;6.65;;;;;;;24.13;77.58;101286.09;6082866;23;20017;-75
2022/09/04 09:25:22;;;;;;;7.75;7.32;;;;;;;24.49;78.22;101286.06;6028252;23;20022;-76
2022/09/04 09:28:22;;;;;;;6.15;5.85;;;;;;;24.54;76.35;101286.47;6109532;23;20558;-75
2022/09/04 09:31:11;;;;;;;6.70;6.30;;;;;;;24.62;74.63;101278.47;6091143;23;20509;-75
2022/09/04 09:33:59;;;;;;;6.10;5.80;;;;;;;24.57;75.60;101279.94;6091691;23;20405;-74
2022/09/04 09:37:03;;;;;;;7.15;6.68;;;;;;;24.83;75.56;101282.63;6105610;23;20089;-74
2022/09/04 09:40:00;;;;;;;6.97;6.47;;;;;;;24.91;74.75;101277.28;6069563;23;20026;-75
2022/09/04 09:42:47;;;;;;;8.50;8.00;;;;;;;24.84;72.93;101276.25;6075101;23;21115;-75
2022/09/04 09:45:36;;;;;;;6.50;6.10;;;;;;;24.90;73.09;101275.63;6074124;23;20069;-73
2022/09/04 09:48:36;;;;;;;6.03;5.72;;;;;;;24.81;73.61;101249.72;6085263;23;20379;-75
2022/09/04 09:51:33;;;;;;;6.30;6.00;;;;;;;24.26;73.94;101133.69;6074211;23;20014;-74
2022/09/04 09:54:40;;;;;;;7.25;6.57;;;;;;;25.25;73.01;101279.16;6098459;23;20051;-75
2022/09/04 09:57:22;;;;;;;6.40;6.00;;;;;;;25.43;72.04;101271.81;6073785;23;20042;-75
2022/09/04 10:00:20;;;;;;;6.53;6.03;;;;;;;25.72;71.06;101270.56;6078888;23;20045;-75
2022/09/04 10:03:23;;;;;;;6.55;6.15;;;;;;;25.37;69.67;101197.25;6100896;23;20045;-74
2022/09/04 10:06:26;;;;;;;6.63;6.22;;;;;;;25.94;69.30;101252.97;6082929;23;20009;-75
2022/09/04 10:09:37;;;;;;;6.40;6.03;;;;;;;26.21;69.60;101267.09;6101359;23;20589;-74
2022/09/04 10:12:42;;;;;;;8.68;6.47;;;;;;;26.28;67.89;101260.03;6074165;23;20064;-74
2022/09/04 10:15:09;;;;;;;6.80;6.40;;;;;;;26.16;67.68;101264.06;5990961;23;20018;-75
2022/09/04 10:18:06;;;;;;;7.68;7.28;;;;;;;26.16;65.82;101251.47;6060591;23;20093;-73
2022/09/04 10:20:52;;;;;;;8.20;7.60;;;;;;;26.34;66.74;101267.44;6089127;23;20084;-74
2022/09/04 10:23:30;;;;;;;6.65;6.30;;;;;;;25.57;66.04;101152.09;6092733;23;20089;-74
2022/09/04 10:26:14;;;;;;;6.60;6.20;;;;;;;26.78;64.79;101271.56;6100912;23;20037;-74
2022/09/04 10:28:55;;;;;;;6.30;5.90;;;;;;;26.61;64.08;101265.38;6084869;23;20022;-74
2022/09/04 10:31:46;;;;;;;7.15;6.68;;;;;;;26.77;63.68;101272.59;6103608;23;20470;-76
2022/09/04 10:34:37;;;;;;;6.20;5.90;;;;;;;26.49;63.16;101272.13;6065419;23;20022;-75
2022/09/04 10:37:28;;;;;;;6.43;6.00;;;;;;;26.38;65.01;101287.59;6096028;23;20090;-75
2022/09/04 10:43:31;;;;;;;6.22;5.93;;;;;;;26.84;62.72;101262.78;6099620;23;20013;-74
2022/09/04 10:46:10;;;;;;;6.57;6.10;;;;;;;26.99;61.78;101234.13;6076232;23;20035;-75
2022/09/04 10:49:10;;;;;;;6.00;5.70;;;;;;;27.27;59.65;101274.13;6099527;23;20021;-74
2022/09/04 10:52:03;;;;;;;6.80;6.43;;;;;;;27.06;59.97;101275.53;6079977;23;20391;-72
2022/09/04 10:55:13;;;;;;;7.10;6.72;;;;;;;27.23;59.55;101279.00;6079233;23;20023;-73
2022/09/04 10:57:58;;;;;;;6.47;6.07;;;;;;;27.32;58.96;101228.59;6046751;23;20112;-73
2022/09/04 11:00:52;;;;;;;7.28;6.88;;;;;;;27.26;58.22;101277.81;6086631;23;20014;-73
2022/09/04 11:03:45;;;;;;;6.35;6.05;;;;;;;26.92;60.74;101251.16;6077076;23;20014;-72
2022/09/04 11:06:25;;;;;;;6.97;6.20;;;;;;;27.48;57.69;101284.25;6110046;23;20037;-72
2022/09/04 11:08:59;;;;;;;6.53;6.13;;;;;;;27.39;56.75;101279.94;6088036;23;20029;-74
2022/09/04 11:11:44;;;;;;;7.18;6.78;;;;;;;27.65;58.03;101275.06;6094683;23;20327;-73
2022/09/04 11:14:34;;;;;;;6.30;6.00;;;;;;;27.81;56.01;101224.75;6109335;23;20081;-74
2022/09/04 11:17:13;;;;;;;6.07;5.78;;;;;;;28.49;54.58;101268.84;6112583;23;20185;-72
2022/09/04 11:20:11;;;;;;;6.00;5.70;;;;;;;28.86;54.48;101259.03;6072704;23;20034;-73
2022/09/04 11:23:21;;;;;;;6.43;6.10;;;;;;;28.94;52.40;101250.81;6020936;23;20017;-73
2022/09/04 11:26:36;;;;;;;6.50;6.20;;;;;;;29.19;53.32;101259.50;6075599;23;20261;-75
2022/09/04 11:29:21;;;;;;;6.43;6.10;;;;;;;29.28;52.11;101272.91;6051909;23;20127;-74
2022/09/04 11:32:10;;;;;;;6.07;5.78;;;;;;;28.77;51.08;101198.84;6080777;23;20485;-74
2022/09/04 11:34:59;;;;;;;6.43;6.10;;;;;;;29.50;50.61;101269.19;6090018;23;20068;-76
2022/09/04 11:37:37;;;;;;;6.20;5.90;;;;;;;29.89;49.57;101262.56;6067321;23;20345;-72
2022/09/04 11:40:37;;;;;;;6.25;5.93;;;;;;;30.07;49.96;101253.13;6099343;23;20077;-81
2022/09/04 11:43:26;;;;;;;6.03;5.72;;;;;;;30.43;47.94;101253.03;6087872;23;20021;-80
2022/09/04 11:46:26;;;;;;;5.97;5.68;;;;;;;29.25;47.92;101182.22;6125521;23;20458;-82
2022/09/04 11:49:12;;;;;;;6.35;5.95;;;;;;;28.95;47.97;101103.06;6085262;23;20021;-80
2022/09/04 11:52:16;;;;;;;6.10;5.80;;;;;;;30.67;48.63;101264.44;6099248;23;20009;-81
2022/09/04 11:55:25;;;;;;;6.40;6.10;;;;;;;30.55;46.16;101261.44;6093361;23;20055;-83
2022/09/04 11:58:07;;;;;;;6.32;6.03;;;;;;;29.85;48.43;101185.53;6123033;23;20021;-83
2022/09/04 12:01:08;;;;;;;6.95;6.55;;;;;;;30.22;48.73;101273.66;6095053;23;20139;-83
2022/09/04 12:04:00;;;;;;;6.47;6.17;;;;;;;30.10;49.07;101269.81;6111996;23;20084;-83
2022/09/04 12:07:00;;;;;;;6.82;6.43;;;;;;;29.97;49.24;101294.06;6074633;23;20069;-83
2022/09/04 12:09:27;;;;;;;6.95;6.65;;;;;;;29.37;49.58;101286.13;6085980;23;20094;-82
2022/09/04 12:12:13;;;;;;;6.18;5.88;;;;;;;29.20;50.15;101293.59;6103132;23;20084;-82
2022/09/04 12:15:02;;;;;;;6.50;6.20;;;;;;;29.34;51.39;101291.91;6083596;23;20421;-81
2022/09/04 12:17:56;;;;;;;7.65;7.25;;;;;;;28.54;50.94;101180.06;6096176;23;20081;-81
2022/09/04 12:20:29;;;;;;;5.78;5.47;;;;;;;29.22;50.58;101296.94;6074007;23;20096;-80
2022/09/04 12:23:02;;;;;;;6.07;5.72;;;;;;;28.92;51.53;101306.91;6102856;23;20047;-80
2022/09/04 12:25:38;;;;;;;7.15;6.75;;;;;;;28.96;51.25;101307.38;6074957;23;20033;-79
2022/09/04 12:28:23;;;;;;;5.90;5.60;;;;;;;28.69;50.87;101249.44;6106298;23;20010;-82
2022/09/04 12:31:09;;;;;;;6.00;5.70;;;;;;;28.19;51.64;101322.78;6057120;23;20509;-81
2022/09/04 12:33:47;;;;;;;6.97;6.57;;;;;;;28.57;51.78;101312.00;6021786;23;20026;-81
2022/09/04 12:36:24;;;;;;;14.77;14.07;;;;;;;28.35;51.22;101318.28;5955672;23;20398;-81
2022/09/04 12:39:02;;;;;;;6.22;5.93;;;;;;;28.13;53.15;101318.09;6026679;23;20036;-80
2022/09/04 12:41:55;;;;;;;7.40;6.90;;;;;;;28.32;52.17;101318.63;6049153;23;20030;-81
2022/09/04 12:44:41;;;;;;;6.35;6.05;;;;;;;28.47;52.37;101321.38;6042981;23;20031;-76
2022/09/04 12:47:31;;;;;;;6.32;5.90;;;;;;;27.68;51.96;101284.66;6051004;23;20249;-83
2022/09/04 12:50:16;;;;;;;6.03;5.72;;;;;;;27.16;52.59;101205.25;6026384;23;20085;-81
2022/09/04 12:53:24;;;;;;;5.95;5.65;;;;;;;28.51;51.53;101318.16;6053294;23;20045;-80
2022/09/04 12:56:02;;;;;;;6.57;6.15;;;;;;;27.16;50.97;101177.47;6044624;23;20030;-82
2022/09/04 12:58:35;;;;;;;5.95;5.65;;;;;;;28.74;49.02;101333.44;6041487;23;20030;-81
2022/09/04 13:01:18;;;;;;;5.90;5.60;;;;;;;29.49;48.52;101328.88;6059455;23;20066;-82
2022/09/04 13:04:20;;;;;;;6.10;5.80;;;;;;;29.82;45.99;101322.00;6062003;23;20029;-82
2022/09/04 13:07:05;;;;;;;6.05;5.65;;;;;;;29.71;46.70;101310.81;6054248;23;20252;-79